createdAt,value
2018-02-06T00:01:13.960Z,16.80
2018-02-06T00:03:40.231Z,16.52
2018-02-06T00:06:06.523Z,17.17
2018-02-06T00:08:33.121Z,16.60
2018-02-06T00:10:59.361Z,17.08
2018-02-06T00:13:25.962Z,16.48
2018-02-06T00:15:52.231Z,16.55
2018-02-06T00:18:18.806Z,16.10
2018-02-06T00:20:45.184Z,15.27
2018-02-06T00:23:11.411Z,17.00
2018-02-06T00:25:37.637Z,15.38
2018-02-06T00:28:03.922Z,16.55
2018-02-06T00:30:30.128Z,16.75
2018-02-06T00:32:56.452Z,16.83
2018-02-06T00:35:22.761Z,16.37
2018-02-06T00:37:48.970Z,16.67
2018-02-06T00:40:15.245Z,16.87
2018-02-06T00:42:41.581Z,17.10
2018-02-06T00:45:07.821Z,17.85
2018-02-06T00:47:34.047Z,16.67
2018-02-06T00:50:00.296Z,16.50
2018-02-06T00:52:26.499Z,17.30
2018-02-06T00:54:52.708Z,16.25
2018-02-06T00:57:19.824Z,16.37
2018-02-06T00:59:46.040Z,16.52
2018-02-06T01:02:12.279Z,17.60
2018-02-06T01:04:38.527Z,18.87
2018-02-06T01:07:05.591Z,17.75
2018-02-06T01:09:31.814Z,19.52
2018-02-06T01:11:58.024Z,16.40
2018-02-06T01:14:24.297Z,16.80
2018-02-06T01:16:50.548Z,17.80
2018-02-06T01:19:16.833Z,19.77
2018-02-06T01:21:43.089Z,17.73
2018-02-06T01:24:09.380Z,17.55
2018-02-06T01:26:35.989Z,18.75
2018-02-06T01:29:02.220Z,18.27
2018-02-06T01:31:28.499Z,17.23
2018-02-06T01:33:55.109Z,17.55
2018-02-06T01:36:21.739Z,19.15
2018-02-06T01:38:48.435Z,17.85
2018-02-06T01:41:14.674Z,18.15
2018-02-06T01:43:40.927Z,17.90
2018-02-06T01:46:07.139Z,19.10
2018-02-06T01:48:33.359Z,19.17
2018-02-06T01:50:59.555Z,18.27
2018-02-06T01:53:25.807Z,19.55
2018-02-06T01:55:52.732Z,19.30
2018-02-06T01:58:21.202Z,18.23
2018-02-06T02:00:47.491Z,18.33
2018-02-06T02:03:13.702Z,18.67
2018-02-06T02:05:39.946Z,18.80
2018-02-06T02:08:06.189Z,18.95
2018-02-06T02:10:32.887Z,18.08
2018-02-06T02:12:59.149Z,19.62
2018-02-06T02:15:25.728Z,19.80
2018-02-06T02:17:51.924Z,18.55
2018-02-06T02:20:18.516Z,18.27
2018-02-06T02:22:44.819Z,19.98
2018-02-06T02:25:11.595Z,19.42
2018-02-06T02:27:37.883Z,19.70
2018-02-06T02:30:04.261Z,18.05
2018-02-06T02:32:30.631Z,18.50
2018-02-06T02:34:56.887Z,18.83
2018-02-06T02:37:23.222Z,17.92
2018-02-06T02:39:49.419Z,20.88
2018-02-06T04:39:14.898Z,23.20
2018-02-06T04:41:41.249Z,20.62
2018-02-06T04:44:07.475Z,23.30
2018-02-06T04:46:34.046Z,22.60
2018-02-06T04:49:00.312Z,20.52
2018-02-06T04:51:26.863Z,22.73
2018-02-06T04:53:53.358Z,20.48
2018-02-06T04:56:19.545Z,22.83
2018-02-06T04:58:45.845Z,21.00
2018-02-06T05:01:12.489Z,22.13
2018-02-06T05:03:38.901Z,22.10
2018-02-06T05:06:05.480Z,21.70
2018-02-06T05:08:31.742Z,20.90
2018-02-06T05:10:58.034Z,22.60
2018-02-06T05:13:24.288Z,21.55
2018-02-06T05:15:50.531Z,20.83
2018-02-06T05:18:16.767Z,23.27
2018-02-06T05:20:43.019Z,20.92
2018-02-06T05:23:09.335Z,22.23
2018-02-06T05:25:35.949Z,22.27
2018-02-06T05:28:02.241Z,22.73
2018-02-06T05:30:28.836Z,22.52
2018-02-06T05:32:55.465Z,21.73
2018-02-06T05:35:21.688Z,23.33
2018-02-06T05:37:49.595Z,22.77
2018-02-06T05:40:15.866Z,21.98
2018-02-06T05:42:42.113Z,22.48
2018-02-06T05:45:08.376Z,20.27
2018-02-06T05:47:34.774Z,21.75
2018-02-06T05:50:01.060Z,20.90
2018-02-06T05:52:27.262Z,21.50
2018-02-06T05:54:53.880Z,23.70
2018-02-06T05:57:20.179Z,21.27
2018-02-06T05:59:46.432Z,22.10
2018-02-06T06:02:12.677Z,23.48
2018-02-06T06:04:38.972Z,21.33
2018-02-06T06:07:05.183Z,21.83
2018-02-06T06:09:31.743Z,22.62
2018-02-06T06:11:57.938Z,22.52
2018-02-06T06:14:24.168Z,20.98
2018-02-06T06:16:50.429Z,23.73
2018-02-06T06:19:16.663Z,22.10
2018-02-06T06:21:42.882Z,21.83
2018-02-06T06:24:10.045Z,21.80
2018-02-06T06:26:36.331Z,23.48
2018-02-06T06:29:02.528Z,21.87
2018-02-06T06:31:28.815Z,21.20
2018-02-06T06:33:55.529Z,23.25
2018-02-06T06:36:21.802Z,24.08
2018-02-06T06:38:48.145Z,21.35
2018-02-06T06:41:14.835Z,21.70
2018-02-06T06:43:41.145Z,23.60
2018-02-06T06:46:07.649Z,21.48
2018-02-06T06:48:34.280Z,22.52
2018-02-06T06:51:00.849Z,22.48
2018-02-06T06:53:27.168Z,21.67
2018-02-06T06:55:53.480Z,22.27
2018-02-06T06:58:19.752Z,22.92
2018-02-06T07:00:46.017Z,23.17
2018-02-06T07:03:12.806Z,23.00
2018-02-06T07:05:39.170Z,23.30
2018-02-06T07:08:05.522Z,23.90
2018-02-06T07:10:32.152Z,23.75
2018-02-06T07:12:58.459Z,24.98
2018-02-06T07:15:24.679Z,24.25
2018-02-06T07:17:50.996Z,23.42
2018-02-06T07:20:17.216Z,23.10
2018-02-06T07:22:43.462Z,22.05
2018-02-06T07:25:09.728Z,23.45
2018-02-06T07:27:35.955Z,23.48
2018-02-06T07:30:02.199Z,22.83
2018-02-06T07:32:28.835Z,23.83
2018-02-06T07:34:55.425Z,24.00
2018-02-06T07:37:22.323Z,22.35
2018-02-06T07:39:49.216Z,23.25
2018-02-06T07:42:15.469Z,22.80
2018-02-06T07:44:41.808Z,22.58
2018-02-06T07:47:08.103Z,22.87
2018-02-06T07:49:34.310Z,23.58
2018-02-06T07:52:00.505Z,22.85
2018-02-06T07:54:27.185Z,24.08
2018-02-06T07:56:53.502Z,23.12
2018-02-06T07:59:19.744Z,22.73
2018-02-06T08:01:46.547Z,23.12
2018-02-06T08:04:12.828Z,24.60
2018-02-06T08:06:39.711Z,24.60
2018-02-06T08:09:06.328Z,23.75
2018-02-06T08:11:32.820Z,24.55
2018-02-06T08:13:59.012Z,23.55
2018-02-06T08:16:25.584Z,25.70
2018-02-06T08:18:51.858Z,25.12
2018-02-06T08:21:18.071Z,24.15
2018-02-06T08:23:44.303Z,24.92
2018-02-06T08:26:10.523Z,26.45
2018-02-06T08:28:36.810Z,22.10
2018-02-06T08:31:03.055Z,24.95
2018-02-06T08:33:29.301Z,23.75
2018-02-06T08:35:55.572Z,23.52
2018-02-06T08:38:21.801Z,23.98
2018-02-06T08:40:48.423Z,22.10
2018-02-06T08:43:14.657Z,22.75
2018-02-06T08:45:41.717Z,25.30
2018-02-06T08:48:08.004Z,25.62
2018-02-06T08:50:34.218Z,23.85
2018-02-06T08:53:00.450Z,24.42
2018-02-06T08:55:26.656Z,22.87
2018-02-06T08:57:53.451Z,24.65
2018-02-06T09:00:19.705Z,24.75
2018-02-06T09:02:45.953Z,24.55
2018-02-06T09:05:12.194Z,24.95
2018-02-06T09:07:38.411Z,24.63
2018-02-06T09:10:04.633Z,22.65
2018-02-06T09:12:30.901Z,25.83
2018-02-06T09:14:57.209Z,25.73
2018-02-06T09:17:23.425Z,27.50
2018-02-06T09:19:49.690Z,24.45
2018-02-06T09:22:15.894Z,25.65
2018-02-06T09:24:42.467Z,24.20
2018-02-06T09:27:08.731Z,25.02
2018-02-06T09:29:35.330Z,24.65
2018-02-06T09:32:01.582Z,25.50
2018-02-06T09:34:28.232Z,25.45
2018-02-06T09:36:54.788Z,23.73
2018-02-06T09:39:21.051Z,26.35
2018-02-06T09:41:47.270Z,24.52
2018-02-06T09:44:13.495Z,26.83
2018-02-06T09:46:39.845Z,24.48
2018-02-06T09:49:06.045Z,24.75
2018-02-06T09:51:32.288Z,24.05
2018-02-06T09:53:58.499Z,26.20
2018-02-06T09:56:24.717Z,25.67
2018-02-06T09:58:50.896Z,24.15
2018-02-06T10:01:17.106Z,24.98
2018-02-06T10:03:43.334Z,25.70
2018-02-06T10:06:09.599Z,25.77
2018-02-06T10:08:36.202Z,24.48
2018-02-06T10:11:02.464Z,23.75
2018-02-06T10:13:29.410Z,26.10
2018-02-06T10:15:55.583Z,24.65
2018-02-06T10:18:21.778Z,23.67
2018-02-06T10:20:48.011Z,24.37
2018-02-06T10:23:14.200Z,25.02
2018-02-06T10:25:40.497Z,25.15
2018-02-06T10:28:06.730Z,24.08
2018-02-06T10:30:33.334Z,23.85
2018-02-06T10:32:59.550Z,25.23
2018-02-06T10:35:26.690Z,25.58
2018-02-06T10:37:52.985Z,25.30
2018-02-06T10:40:19.908Z,24.92
2018-02-06T10:42:46.151Z,26.45
2018-02-06T10:45:12.345Z,24.42
2018-02-06T10:47:38.941Z,23.90
2018-02-06T10:50:05.173Z,24.40
2018-02-06T10:52:31.734Z,24.37
2018-02-06T10:54:58.057Z,24.37
2018-02-06T10:57:24.639Z,24.15
2018-02-06T10:59:50.898Z,25.73
2018-02-06T11:02:17.570Z,26.45
2018-02-06T11:04:43.797Z,24.92
2018-02-06T11:07:10.034Z,23.15
2018-02-06T11:09:36.229Z,25.17
2018-02-06T11:12:02.818Z,24.45
2018-02-06T11:14:29.056Z,25.62
2018-02-06T11:16:55.266Z,24.37
2018-02-06T11:19:21.523Z,25.85
2018-02-06T11:21:48.632Z,24.48
2018-02-06T11:24:14.887Z,24.90
2018-02-06T11:26:41.375Z,25.23
2018-02-06T11:29:07.977Z,25.90
2018-02-06T11:31:34.286Z,26.40
2018-02-06T11:34:00.593Z,25.50
2018-02-06T11:36:26.777Z,26.20
2018-02-06T11:38:53.506Z,24.63
2018-02-06T11:41:20.130Z,25.25
2018-02-06T11:43:46.368Z,25.05
2018-02-06T11:46:12.655Z,24.80
2018-02-06T11:48:38.926Z,26.00
2018-02-06T11:51:05.416Z,24.98
2018-02-06T11:53:31.641Z,23.52
2018-02-06T11:55:57.870Z,25.20
2018-02-06T11:58:24.114Z,24.67
2018-02-06T12:00:50.474Z,25.65
2018-02-06T12:03:16.678Z,25.20
2018-02-06T12:05:42.915Z,22.85
2018-02-06T12:08:09.185Z,24.25
2018-02-06T12:10:35.358Z,24.73
2018-02-06T12:13:01.575Z,23.90
2018-02-06T12:15:27.792Z,22.60
2018-02-06T12:17:54.039Z,24.05
2018-02-06T12:20:20.321Z,23.45
2018-02-06T12:22:47.689Z,23.65
2018-02-06T12:25:14.262Z,25.33
2018-02-06T12:27:41.314Z,25.48
2018-02-06T12:30:07.587Z,27.02
2018-02-06T12:32:34.241Z,25.77
2018-02-06T12:35:00.478Z,24.20
2018-02-06T12:37:26.711Z,24.70
2018-02-06T12:39:52.943Z,25.73
2018-02-06T12:42:19.169Z,26.25
2018-02-06T12:44:45.387Z,26.45
2018-02-06T12:47:11.674Z,26.55
2018-02-06T12:49:37.917Z,25.35
2018-02-06T12:52:04.523Z,26.83
2018-02-06T12:54:30.728Z,25.08
2018-02-06T12:56:56.936Z,25.40
2018-02-06T12:59:23.173Z,25.42
2018-02-06T13:01:49.407Z,24.70
2018-02-06T13:04:15.641Z,24.90
2018-02-06T13:06:41.936Z,27.33
2018-02-06T13:09:08.221Z,25.23
2018-02-06T13:11:34.470Z,25.88
2018-02-06T13:14:01.083Z,26.48
2018-02-06T13:16:27.323Z,28.23
2018-02-06T13:18:53.533Z,24.75
2018-02-06T13:21:19.730Z,27.25
2018-02-06T13:23:45.921Z,25.83
2018-02-06T13:26:12.134Z,27.55
2018-02-06T13:28:38.361Z,25.05
2018-02-06T13:31:04.607Z,26.27
2018-02-06T13:33:30.800Z,24.20
2018-02-06T13:35:57.027Z,24.23
2018-02-06T13:38:23.232Z,24.58
2018-02-06T13:40:49.467Z,26.42
2018-02-06T13:43:15.714Z,23.65
2018-02-06T13:45:41.975Z,24.90
2018-02-06T13:48:08.217Z,25.52
2018-02-06T13:50:34.790Z,24.17
2018-02-06T13:53:00.985Z,24.30
2018-02-06T13:55:27.583Z,24.55
2018-02-06T13:57:54.171Z,24.50
